createdAt,value
2023-01-21T00:01:11.278Z,0.77
2023-01-21T00:03:38.957Z,0.73
2023-01-21T00:06:06.993Z,0.72
2023-01-21T00:08:34.902Z,0.69
2023-01-21T00:11:07.552Z,0.65
2023-01-21T00:13:35.750Z,0.63
2023-01-21T00:16:07.379Z,0.61
2023-01-21T00:18:35.159Z,0.59
2023-01-21T00:21:02.822Z,0.57
2023-01-21T00:23:30.725Z,0.56
2023-01-21T00:26:00.149Z,0.55
2023-01-21T00:28:29.469Z,0.54
2023-01-21T00:30:59.289Z,0.53
2023-01-21T00:33:28.409Z,0.51
2023-01-21T00:36:10.941Z,0.51
2023-01-21T00:38:38.901Z,0.48
2023-01-21T00:41:09.954Z,0.45
2023-01-21T00:43:39.339Z,0.43
2023-01-21T00:46:07.908Z,0.42
2023-01-21T00:48:36.454Z,0.42
2023-01-21T00:51:04.645Z,0.42
2023-01-21T00:53:35.893Z,0.41
2023-01-21T00:56:09.313Z,0.41
2023-01-21T00:58:38.051Z,0.42
2023-01-21T01:01:12.543Z,0.42
2023-01-21T01:03:40.838Z,0.41
2023-01-21T01:06:12.531Z,0.39
2023-01-21T01:08:40.700Z,0.37
2023-01-21T01:11:09.000Z,0.36
2023-01-21T01:13:42.698Z,0.35
2023-01-21T01:16:13.383Z,0.36
2023-01-21T01:18:41.141Z,0.36
2023-01-21T01:21:12.729Z,0.35
2023-01-21T01:23:40.750Z,0.35
2023-01-21T01:26:11.715Z,0.35
2023-01-21T01:28:40.239Z,0.33
2023-01-21T01:31:11.145Z,0.33
2023-01-21T01:33:38.925Z,0.32
2023-01-21T01:36:11.850Z,0.33
2023-01-21T01:38:39.573Z,0.34
2023-01-21T01:41:07.877Z,0.35
2023-01-21T01:43:52.574Z,0.36
2023-01-21T01:46:21.670Z,0.35
2023-01-21T01:49:00.600Z,0.35
2023-01-21T01:51:56.046Z,0.35
2023-01-21T01:54:34.954Z,0.36
2023-01-21T01:57:06.806Z,0.36
2023-01-21T01:59:35.164Z,0.34
2023-01-21T02:02:06.999Z,0.33
2023-01-21T02:04:42.383Z,0.32
2023-01-21T02:07:10.742Z,0.33
2023-01-21T02:09:38.448Z,0.34
2023-01-21T02:12:07.227Z,0.35
2023-01-21T02:14:42.695Z,0.35
2023-01-21T02:17:38.799Z,0.34
2023-01-21T02:20:38.555Z,0.33
2023-01-21T02:23:40.399Z,0.29
2023-01-21T02:26:26.754Z,0.28
2023-01-21T02:29:16.506Z,0.29
2023-01-21T02:31:46.877Z,0.30
2023-01-21T02:34:43.200Z,0.31
2023-01-21T02:37:42.706Z,0.33
2023-01-21T02:40:13.963Z,0.33
2023-01-21T02:42:46.334Z,0.34
2023-01-21T02:45:47.430Z,0.34
2023-01-21T02:48:19.942Z,0.35
2023-01-21T02:50:53.297Z,0.36
2023-01-21T02:53:36.902Z,0.36
2023-01-21T02:56:23.488Z,0.37
2023-01-21T02:58:59.437Z,0.37
2023-01-21T03:01:59.119Z,0.37
2023-01-21T03:04:32.891Z,0.38
2023-01-21T03:07:25.591Z,0.37
2023-01-21T03:09:59.180Z,0.38
2023-01-21T03:12:58.695Z,0.39
2023-01-21T03:15:55.263Z,0.41
2023-01-21T03:18:34.257Z,0.41
2023-01-21T03:21:06.961Z,0.40
2023-01-21T03:23:41.753Z,0.41
2023-01-21T03:26:14.023Z,0.41
2023-01-21T03:28:46.801Z,0.41
2023-01-21T03:31:20.686Z,0.40
2023-01-21T03:33:53.174Z,0.39
2023-01-21T03:36:28.825Z,0.40
2023-01-21T03:38:57.859Z,0.41
2023-01-21T03:41:33.551Z,0.42
2023-01-21T03:44:01.202Z,0.41
2023-01-21T03:46:57.511Z,0.41
2023-01-21T03:49:33.518Z,0.41
2023-01-21T03:52:03.732Z,0.41
2023-01-21T03:54:31.850Z,0.41
2023-01-21T03:56:59.521Z,0.41
2023-01-21T03:59:27.170Z,0.41
2023-01-21T04:01:54.817Z,0.42
2023-01-21T04:04:22.499Z,0.42
2023-01-21T04:06:50.115Z,0.41
2023-01-21T04:09:17.773Z,0.41
2023-01-21T04:11:45.429Z,0.41
2023-01-21T04:14:13.085Z,0.36
2023-01-21T04:16:40.801Z,0.35
2023-01-21T04:19:08.765Z,0.36
2023-01-21T04:21:36.440Z,0.36
2023-01-21T04:24:04.511Z,0.36
2023-01-21T04:26:32.084Z,0.36
2023-01-21T04:28:59.700Z,0.35
2023-01-21T04:31:27.312Z,0.35
2023-01-21T04:33:54.969Z,0.37
2023-01-21T04:36:22.657Z,0.37
2023-01-21T04:38:50.228Z,0.38
2023-01-21T04:41:17.894Z,0.41
2023-01-21T04:43:45.521Z,0.42
2023-01-21T04:46:13.268Z,0.43
2023-01-21T04:48:41.056Z,0.45
2023-01-21T04:51:08.760Z,0.45
2023-01-21T04:53:37.133Z,0.46
2023-01-21T04:56:05.083Z,0.47
2023-01-21T04:58:32.705Z,0.50
2023-01-21T05:01:00.358Z,0.52
2023-01-21T05:03:28.029Z,0.54
2023-01-21T05:05:55.632Z,0.55
2023-01-21T05:08:23.290Z,0.56
2023-01-21T05:10:50.927Z,0.56
2023-01-21T05:13:18.582Z,0.55
2023-01-21T05:15:46.183Z,0.55
2023-01-21T05:18:13.844Z,0.53
2023-01-21T05:20:41.478Z,0.51
2023-01-21T05:23:09.103Z,0.51
2023-01-21T05:25:36.723Z,0.51
2023-01-21T05:28:04.458Z,0.51
2023-01-21T05:30:32.084Z,0.49
2023-01-21T05:32:59.716Z,0.45
2023-01-21T05:35:27.347Z,0.42
2023-01-21T05:37:55.020Z,0.39
2023-01-21T05:40:22.734Z,0.36
2023-01-21T05:42:50.318Z,0.31
2023-01-21T05:45:18.104Z,0.28
2023-01-21T05:47:45.757Z,0.26
2023-01-21T05:50:13.610Z,0.24
2023-01-21T05:52:41.306Z,0.20
2023-01-21T05:55:09.030Z,0.15
2023-01-21T05:57:36.780Z,0.12
2023-01-21T06:00:05.561Z,0.09
2023-01-21T06:02:33.338Z,0.05
2023-01-21T06:05:01.158Z,0.03
2023-01-21T06:07:28.757Z,0.01
2023-01-21T06:09:56.397Z,-0.01
2023-01-21T06:12:24.932Z,-0.03
2023-01-21T06:14:52.807Z,-0.05
2023-01-21T06:17:20.463Z,-0.07
2023-01-21T06:19:48.189Z,-0.09
2023-01-21T06:22:16.837Z,-0.11
2023-01-21T06:24:44.785Z,-0.13
2023-01-21T06:27:12.462Z,-0.14
2023-01-21T06:29:40.091Z,-0.16
2023-01-21T06:32:07.922Z,-0.17
2023-01-21T06:34:35.580Z,-0.20
2023-01-21T06:37:03.374Z,-0.22
2023-01-21T06:39:31.027Z,-0.23
2023-01-21T06:41:58.689Z,-0.24
2023-01-21T06:44:26.328Z,-0.27
2023-01-21T06:47:00.745Z,-0.28
2023-01-21T06:49:29.109Z,-0.29
2023-01-21T06:51:56.822Z,-0.29
2023-01-21T06:54:24.722Z,-0.30
2023-01-21T06:56:52.584Z,-0.31
2023-01-21T06:59:20.232Z,-0.32
2023-01-21T07:01:47.953Z,-0.30
2023-01-21T07:04:15.753Z,-0.30
2023-01-21T07:06:43.372Z,-0.29
2023-01-21T07:09:11.157Z,-0.30
2023-01-21T07:11:38.785Z,-0.30
2023-01-21T07:14:06.416Z,-0.29
2023-01-21T07:16:34.077Z,-0.29
2023-01-21T07:19:01.716Z,-0.27
2023-01-21T07:21:29.449Z,-0.24
2023-01-21T07:23:57.236Z,-0.23
2023-01-21T07:26:24.858Z,-0.22
2023-01-21T07:28:52.497Z,-0.22
2023-01-21T07:31:20.184Z,-0.21
2023-01-21T07:33:47.960Z,-0.21
2023-01-21T07:36:15.574Z,-0.22
2023-01-21T07:38:43.310Z,-0.20
2023-01-21T07:41:10.945Z,-0.18
2023-01-21T07:43:38.602Z,-0.17
2023-01-21T07:46:06.387Z,-0.16
2023-01-21T07:48:34.043Z,-0.14
2023-01-21T07:51:01.777Z,-0.13
2023-01-21T07:53:29.441Z,-0.12
2023-01-21T07:55:57.071Z,-0.10
2023-01-21T07:58:24.793Z,-0.09
2023-01-21T08:00:52.425Z,-0.08
2023-01-21T08:03:21.929Z,-0.07
2023-01-21T08:05:52.024Z,-0.06
2023-01-21T08:08:19.642Z,-0.05
2023-01-21T08:10:55.381Z,-0.03
2023-01-21T08:13:23.957Z,-0.00
2023-01-21T08:15:52.942Z,0.02
2023-01-21T08:18:24.506Z,0.04
2023-01-21T08:20:56.801Z,0.07
2023-01-21T08:23:26.038Z,0.11
2023-01-21T08:25:54.221Z,0.14
2023-01-21T08:28:23.188Z,0.16
2023-01-21T08:30:50.845Z,0.20
2023-01-21T08:33:18.592Z,0.22
2023-01-21T08:35:46.268Z,0.24
2023-01-21T08:38:13.900Z,0.25
2023-01-21T08:40:41.525Z,0.27
2023-01-21T08:43:09.168Z,0.30
2023-01-21T08:45:36.884Z,0.33
2023-01-21T08:48:04.718Z,0.37
2023-01-21T08:50:32.331Z,0.40
2023-01-21T08:53:00.624Z,0.43
2023-01-21T08:55:28.317Z,0.45
2023-01-21T08:57:58.285Z,0.45
2023-01-21T09:00:26.166Z,0.46
2023-01-21T09:02:53.832Z,0.47
2023-01-21T09:05:21.613Z,0.46
2023-01-21T09:07:49.321Z,0.45
2023-01-21T09:10:38.498Z,0.45
2023-01-21T09:13:08.539Z,0.47
2023-01-21T09:15:44.368Z,0.50
2023-01-21T09:18:12.141Z,0.52
2023-01-21T09:20:40.092Z,0.54
2023-01-21T09:23:25.079Z,0.55
2023-01-21T09:26:20.536Z,0.58
2023-01-21T09:28:54.247Z,0.59
2023-01-21T09:31:24.309Z,0.60
2023-01-21T09:34:00.792Z,0.62
2023-01-21T09:36:31.583Z,0.65
2023-01-21T09:38:59.679Z,0.68
2023-01-21T09:41:50.318Z,0.70
2023-01-21T09:44:36.985Z,0.74
2023-01-21T09:47:20.537Z,0.76
2023-01-21T09:49:55.658Z,0.77
2023-01-21T09:52:30.053Z,0.79
2023-01-21T09:54:58.742Z,0.82
2023-01-21T09:57:45.119Z,0.84
2023-01-21T10:00:18.888Z,0.87
2023-01-21T10:03:20.425Z,0.90
2023-01-21T10:06:09.328Z,0.96
2023-01-21T10:08:59.235Z,1.01
2023-01-21T10:11:41.269Z,1.05
2023-01-21T10:14:19.760Z,1.09
2023-01-21T10:17:19.326Z,1.13
2023-01-21T10:19:54.995Z,1.18
2023-01-21T10:22:26.787Z,1.25
2023-01-21T10:25:16.398Z,1.32
2023-01-21T10:27:45.545Z,1.39
2023-01-21T10:30:26.767Z,1.43
2023-01-21T10:32:56.267Z,1.47
2023-01-21T10:35:54.789Z,1.49
2023-01-21T10:38:25.118Z,1.55
2023-01-21T10:41:13.888Z,1.58
2023-01-21T10:44:00.475Z,1.63
2023-01-21T10:46:33.785Z,1.65
2023-01-21T10:49:23.189Z,1.68
2023-01-21T10:52:02.898Z,1.71
2023-01-21T10:54:46.409Z,1.72
2023-01-21T10:57:19.835Z,1.75
2023-01-21T10:59:50.039Z,1.76
2023-01-21T11:02:36.648Z,1.76
2023-01-21T11:05:05.333Z,1.74
2023-01-21T11:07:42.370Z,1.73
2023-01-21T11:10:19.834Z,1.71
2023-01-21T11:12:48.748Z,1.71
2023-01-21T11:15:19.950Z,1.70
2023-01-21T11:17:53.593Z,1.69
2023-01-21T11:20:41.710Z,1.70
2023-01-21T11:23:28.219Z,1.68
2023-01-21T11:26:05.290Z,1.68
2023-01-21T11:28:34.433Z,1.67
2023-01-21T11:31:08.408Z,1.69
2023-01-21T11:33:37.375Z,1.73
2023-01-21T11:36:21.299Z,1.74
2023-01-21T11:39:02.080Z,1.74
2023-01-21T11:41:29.948Z,1.72
2023-01-21T11:44:18.053Z,1.69
2023-01-21T11:46:46.084Z,1.69
2023-01-21T11:49:35.482Z,1.70
2023-01-21T11:52:20.531Z,1.68
2023-01-21T11:54:52.005Z,1.65
2023-01-21T11:57:29.615Z,1.65
2023-01-21T12:00:07.609Z,1.64
2023-01-21T12:02:41.387Z,1.64
2023-01-21T12:05:45.206Z,1.63
2023-01-21T12:08:31.061Z,1.59
2023-01-21T12:11:05.116Z,1.59
2023-01-21T12:13:49.173Z,1.59
2023-01-21T12:16:52.961Z,1.60
2023-01-21T12:19:20.596Z,1.60
2023-01-21T12:22:20.152Z,1.59
2023-01-21T12:24:47.733Z,1.58
2023-01-21T12:27:27.791Z,1.57
2023-01-21T12:30:28.256Z,1.57
2023-01-21T12:33:05.263Z,1.58
2023-01-21T12:35:42.294Z,1.57
2023-01-21T12:38:20.527Z,1.57
2023-01-21T12:41:08.293Z,1.56
2023-01-21T12:43:59.527Z,1.56
2023-01-21T12:46:36.929Z,1.53
2023-01-21T12:49:15.362Z,1.50
2023-01-21T12:51:46.555Z,1.49
2023-01-21T12:54:40.959Z,1.49
2023-01-21T12:57:19.294Z,1.49
2023-01-21T12:59:57.011Z,1.48
2023-01-21T13:02:32.298Z,1.47
2023-01-21T13:05:02.905Z,1.44
2023-01-21T13:07:36.501Z,1.44
2023-01-21T13:10:24.728Z,1.44
2023-01-21T13:13:01.096Z,1.44
2023-01-21T13:15:33.379Z,1.42
2023-01-21T13:18:08.506Z,1.40
2023-01-21T13:20:40.477Z,1.40
2023-01-21T13:23:32.295Z,1.39
2023-01-21T13:26:36.275Z,1.38
2023-01-21T13:29:17.597Z,1.37
2023-01-21T13:32:17.239Z,1.37
2023-01-21T13:35:26.105Z,1.36
2023-01-21T13:38:09.794Z,1.36
2023-01-21T13:40:45.310Z,1.34
2023-01-21T13:43:25.299Z,1.34
2023-01-21T13:46:14.671Z,1.35
2023-01-21T13:48:59.516Z,1.35
2023-01-21T13:51:43.820Z,1.35
2023-01-21T13:54:34.940Z,1.34
2023-01-21T13:57:26.867Z,1.32
2023-01-21T14:00:12.659Z,1.31
2023-01-21T14:02:54.009Z,1.32
2023-01-21T14:05:52.513Z,1.32
2023-01-21T14:08:42.822Z,1.31
2023-01-21T14:11:44.493Z,1.32
2023-01-21T14:14:28.053Z,1.33
2023-01-21T14:17:25.529Z,1.33
2023-01-21T14:20:09.593Z,1.32
2023-01-21T14:22:37.248Z,1.34
2023-01-21T14:25:23.915Z,1.34
2023-01-21T14:28:23.331Z,1.34
2023-01-21T14:31:11.031Z,1.34
2023-01-21T14:33:38.748Z,1.35
2023-01-21T14:36:06.631Z,1.35
2023-01-21T14:38:44.713Z,1.37
2023-01-21T14:41:12.829Z,1.38
2023-01-21T14:43:40.863Z,1.38
2023-01-21T14:46:29.268Z,1.37
2023-01-21T14:49:00.816Z,1.37
2023-01-21T14:51:31.812Z,1.35
2023-01-21T14:54:02.756Z,1.34
2023-01-21T14:56:33.048Z,1.33
2023-01-21T14:59:04.930Z,1.34
2023-01-21T15:01:34.811Z,1.34
2023-01-21T15:04:07.624Z,1.34
2023-01-21T15:06:38.992Z,1.35
2023-01-21T15:09:09.168Z,1.35
2023-01-21T15:11:40.519Z,1.33
2023-01-21T15:14:28.582Z,1.32
2023-01-21T15:16:56.820Z,1.31
2023-01-21T15:19:30.505Z,1.32
2023-01-21T15:22:30.019Z,1.33
2023-01-21T15:25:22.092Z,1.34
2023-01-21T15:28:29.015Z,1.34
2023-01-21T15:31:05.902Z,1.35
2023-01-21T15:33:39.178Z,1.36
2023-01-21T15:36:20.157Z,1.38
2023-01-21T15:38:49.692Z,1.39
2023-01-21T15:41:27.451Z,1.40
2023-01-21T15:44:02.386Z,1.40
2023-01-21T15:46:54.216Z,1.40
2023-01-21T15:49:37.706Z,1.41
2023-01-21T15:52:21.250Z,1.41
2023-01-21T15:55:09.061Z,1.42
2023-01-21T15:58:02.437Z,1.43
2023-01-21T16:00:48.525Z,1.44
2023-01-21T16:03:22.047Z,1.44
2023-01-21T16:06:00.724Z,1.44
2023-01-21T16:08:44.304Z,1.44
2023-01-21T16:11:43.892Z,1.44
2023-01-21T16:14:34.385Z,1.45
2023-01-21T16:17:12.683Z,1.45
2023-01-21T16:19:45.352Z,1.45
2023-01-21T16:22:17.655Z,1.44
2023-01-21T16:24:49.703Z,1.46
2023-01-21T16:27:25.218Z,1.47
2023-01-21T16:29:57.573Z,1.46
2023-01-21T16:32:26.960Z,1.44
2023-01-21T16:34:54.615Z,1.46
2023-01-21T16:37:27.801Z,1.46
2023-01-21T16:40:16.621Z,1.44
2023-01-21T16:42:44.992Z,1.45
2023-01-21T16:45:18.017Z,1.47
2023-01-21T16:47:53.359Z,1.48
2023-01-21T16:50:24.053Z,1.49
2023-01-21T16:52:53.509Z,1.50
2023-01-21T16:55:27.378Z,1.53
2023-01-21T16:57:58.115Z,1.55
2023-01-21T17:00:25.703Z,1.57
2023-01-21T17:02:54.808Z,1.58
2023-01-21T17:05:25.595Z,1.60
2023-01-21T17:07:57.442Z,1.61
2023-01-21T17:10:29.095Z,1.63
2023-01-21T17:13:01.430Z,1.63
2023-01-21T17:15:36.174Z,1.63
2023-01-21T17:18:07.037Z,1.63
2023-01-21T17:21:01.269Z,1.61
2023-01-21T17:23:44.856Z,1.59
2023-01-21T17:26:24.047Z,1.59
2023-01-21T17:28:57.243Z,1.59
2023-01-21T17:31:30.808Z,1.60
2023-01-21T17:34:14.500Z,1.62
2023-01-21T17:36:44.637Z,1.62
2023-01-21T17:39:12.464Z,1.63
2023-01-21T17:41:41.618Z,1.62
2023-01-21T17:44:26.155Z,1.64
2023-01-21T17:46:54.438Z,1.65
2023-01-21T17:49:24.400Z,1.66
2023-01-21T17:51:56.507Z,1.67
2023-01-21T17:54:26.496Z,1.68
2023-01-21T17:56:59.323Z,1.68
2023-01-21T17:59:45.819Z,1.69
2023-01-21T18:02:16.910Z,1.69
2023-01-21T18:04:45.151Z,1.69
2023-01-21T18:07:22.428Z,1.69
2023-01-21T18:09:52.429Z,1.69
2023-01-21T18:12:21.731Z,1.69
2023-01-21T18:14:49.328Z,1.68
2023-01-21T18:17:23.744Z,1.70
2023-01-21T18:19:51.713Z,1.70
2023-01-21T18:22:36.149Z,1.69
2023-01-21T18:25:06.488Z,1.68
2023-01-21T18:27:34.387Z,1.68
2023-01-21T18:30:02.441Z,1.68
2023-01-21T18:32:30.104Z,1.68
2023-01-21T18:34:59.722Z,1.68
2023-01-21T18:37:27.423Z,1.68
2023-01-21T18:39:55.049Z,1.69
2023-01-21T18:42:23.512Z,1.70
2023-01-21T18:44:51.165Z,1.71
2023-01-21T18:47:20.380Z,1.71
2023-01-21T18:49:50.704Z,1.71
2023-01-21T18:52:20.206Z,1.70
2023-01-21T18:54:47.963Z,1.70
2023-01-21T18:57:20.053Z,1.71
2023-01-21T18:59:47.955Z,1.72
2023-01-21T19:02:18.618Z,1.74
2023-01-21T19:04:47.272Z,1.75
2023-01-21T19:07:15.498Z,1.76
2023-01-21T19:09:46.156Z,1.78
2023-01-21T19:12:16.450Z,1.79
2023-01-21T19:14:44.941Z,1.80
2023-01-21T19:17:20.269Z,1.81
2023-01-21T19:19:47.931Z,1.80
2023-01-21T19:22:15.854Z,1.79
2023-01-21T19:24:43.974Z,1.78
2023-01-21T19:27:16.445Z,1.78
2023-01-21T19:29:44.088Z,1.79
2023-01-21T19:32:15.035Z,1.79
2023-01-21T19:34:43.031Z,1.79
2023-01-21T19:37:24.247Z,1.81
2023-01-21T19:39:51.834Z,1.81
2023-01-21T19:42:19.508Z,1.81
2023-01-21T19:44:47.117Z,1.81
2023-01-21T19:47:24.763Z,1.82
2023-01-21T19:49:54.407Z,1.82
2023-01-21T19:52:22.269Z,1.80
2023-01-21T19:54:50.164Z,1.81
2023-01-21T19:57:17.954Z,1.79
2023-01-21T19:59:49.511Z,1.80
2023-01-21T20:02:17.283Z,1.80
2023-01-21T20:04:45.220Z,1.80
2023-01-21T20:07:16.710Z,1.81
2023-01-21T20:09:44.655Z,1.82
2023-01-21T20:12:12.812Z,1.84
2023-01-21T20:14:40.478Z,1.83
2023-01-21T20:17:12.391Z,1.82
2023-01-21T20:19:40.376Z,1.83
2023-01-21T20:22:07.980Z,1.84
2023-01-21T20:24:35.636Z,1.84
2023-01-21T20:27:07.737Z,1.85
2023-01-21T20:29:37.762Z,1.85
2023-01-21T20:32:10.106Z,1.86
2023-01-21T20:34:37.836Z,1.87
2023-01-21T20:37:05.590Z,1.88
2023-01-21T20:39:33.331Z,1.89
2023-01-21T20:42:01.082Z,1.88
2023-01-21T20:44:28.696Z,1.87
2023-01-21T20:46:58.570Z,1.87
2023-01-21T20:49:26.153Z,1.86
2023-01-21T20:51:54.210Z,1.85
2023-01-21T20:54:21.989Z,1.85
2023-01-21T20:56:49.597Z,1.85
2023-01-21T20:59:18.327Z,1.83
2023-01-21T21:01:47.057Z,1.82
2023-01-21T21:04:14.690Z,1.80
2023-01-21T21:06:45.669Z,1.80
2023-01-21T21:09:13.407Z,1.78
2023-01-21T21:11:41.005Z,1.77
2023-01-21T21:14:08.672Z,1.75
2023-01-21T21:16:36.354Z,1.72
2023-01-21T21:19:04.224Z,1.70
2023-01-21T21:21:31.952Z,1.69
2023-01-21T21:23:59.628Z,1.68
2023-01-21T21:26:33.146Z,1.68
2023-01-21T21:29:00.790Z,1.67
2023-01-21T21:31:31.878Z,1.67
2023-01-21T21:33:59.671Z,1.67
2023-01-21T21:36:27.347Z,1.67
2023-01-21T21:38:55.925Z,1.67
2023-01-21T21:41:41.937Z,1.66
2023-01-21T21:44:11.006Z,1.66
2023-01-21T21:46:55.503Z,1.64
2023-01-21T21:49:23.533Z,1.64
2023-01-21T21:51:51.758Z,1.63
2023-01-21T21:54:19.503Z,1.62
2023-01-21T21:56:48.039Z,1.60
2023-01-21T21:59:15.916Z,1.59
2023-01-21T22:01:44.551Z,1.59
2023-01-21T22:04:12.495Z,1.58
2023-01-21T22:06:40.298Z,1.57
2023-01-21T22:09:08.333Z,1.55
2023-01-21T22:11:36.149Z,1.56
2023-01-21T22:14:04.373Z,1.55
2023-01-21T22:16:33.410Z,1.54
2023-01-21T22:19:01.703Z,1.55
2023-01-21T22:21:32.661Z,1.55
2023-01-21T22:24:02.472Z,1.56
2023-01-21T22:26:30.390Z,1.57
2023-01-21T22:28:58.523Z,1.58
2023-01-21T22:31:29.562Z,1.59
2023-01-21T22:33:58.978Z,1.60
2023-01-21T22:36:29.672Z,1.61
2023-01-21T22:38:57.758Z,1.61
2023-01-21T22:41:25.766Z,1.61
2023-01-21T22:43:54.182Z,1.62
2023-01-21T22:46:27.046Z,1.61
2023-01-21T22:48:55.169Z,1.61
2023-01-21T22:51:23.603Z,1.61
2023-01-21T22:53:52.709Z,1.59
2023-01-21T22:56:31.457Z,1.58
2023-01-21T22:59:07.814Z,1.58
2023-01-21T23:01:36.436Z,1.59
2023-01-21T23:04:04.385Z,1.58
2023-01-21T23:06:32.099Z,1.59
2023-01-21T23:09:00.476Z,1.59
2023-01-21T23:11:28.060Z,1.60
2023-01-21T23:13:55.719Z,1.60
2023-01-21T23:16:23.761Z,1.59
2023-01-21T23:18:51.750Z,1.58
2023-01-21T23:21:21.587Z,1.58
2023-01-21T23:23:50.282Z,1.58
2023-01-21T23:26:19.225Z,1.58
2023-01-21T23:28:47.258Z,1.60
2023-01-21T23:31:17.273Z,1.60
2023-01-21T23:33:49.510Z,1.61
2023-01-21T23:36:17.948Z,1.63
2023-01-21T23:38:45.631Z,1.63
2023-01-21T23:41:17.073Z,1.63
2023-01-21T23:43:44.732Z,1.64
2023-01-21T23:46:16.683Z,1.63
2023-01-21T23:48:44.404Z,1.63
2023-01-21T23:51:14.634Z,1.65
2023-01-21T23:53:42.515Z,1.66
2023-01-21T23:56:16.106Z,1.69
2023-01-21T23:58:44.152Z,1.72
